Time;durP1;ratioP1;P1;durP2;ratioP2;P2;SDS_P1;SDS_P2;PMS_P1;PMS_P2;Temp;Humidity;BMP_temperature;BMP_pressure;BME280_temperature;BME280_humidity;BME280_pressure;Samples;Min_cycle;Max_cycle;Signal;HPM_P1;HPM_P2
2022/06/10 00:00:27;;;;;;;32.60;26.00;;;;;;;20.80;54.21;93603.06;4991344;28;20777;-91
2022/06/10 00:02:53;;;;;;;30.05;24.80;;;;;;;20.83;53.97;93593.06;5010358;28;20040;-92
2022/06/10 00:05:22;;;;;;;32.58;26.23;;;;;;;20.81;54.17;93599.06;4963425;28;20041;-92
2022/06/10 00:07:49;;;;;;;33.55;25.27;;;;;;;20.81;53.95;93604.56;4990286;28;20029;-92
2022/06/10 00:10:15;;;;;;;31.50;25.45;;;;;;;20.80;54.03;93605.81;4990275;28;20048;-92
2022/06/10 00:12:41;;;;;;;31.70;24.65;;;;;;;20.82;53.97;93599.81;4996722;28;20056;-91
2022/06/10 00:15:07;;;;;;;31.05;25.17;;;;;;;20.81;54.09;93603.81;4988418;28;20123;-92
2022/06/10 00:17:33;;;;;;;30.48;23.55;;;;;;;20.81;54.15;93603.81;5001581;28;20932;-91
2022/06/10 00:19:58;;;;;;;31.02;22.75;;;;;;;20.79;54.01;93601.59;4971640;28;20064;-92
2022/06/10 00:22:24;;;;;;;27.58;22.23;;;;;;;20.79;54.05;93603.59;5000061;28;20046;-90
2022/06/10 00:24:51;;;;;;;27.13;22.30;;;;;;;20.81;54.01;93601.06;5004377;28;20096;-92
2022/06/10 00:27:18;;;;;;;28.20;22.73;;;;;;;20.80;54.01;93605.81;5024314;28;20048;-91
2022/06/10 00:29:43;;;;;;;28.38;22.35;;;;;;;20.83;53.90;93598.53;4999776;28;21168;-91
2022/06/10 00:32:09;;;;;;;26.77;21.95;;;;;;;20.81;53.96;93603.81;5007806;28;20506;-91
2022/06/10 00:34:35;;;;;;;28.52;21.45;;;;;;;20.79;53.97;93609.84;5006018;28;20801;-91
2022/06/10 00:37:03;;;;;;;26.13;20.63;;;;;;;20.79;53.83;93612.56;4983883;28;20107;-91
2022/06/10 00:39:28;;;;;;;26.10;21.13;;;;;;;20.79;53.96;93614.59;5019689;28;20133;-91
2022/06/10 00:41:54;;;;;;;25.48;20.35;;;;;;;20.80;53.96;93613.31;5024513;28;20037;-92
2022/06/10 00:44:41;;;;;;;27.48;22.25;;;;;;;20.80;53.78;93613.31;5028195;28;20037;-91
2022/06/10 00:47:22;;;;;;;26.38;20.63;;;;;;;20.78;53.96;93608.38;5027826;28;20068;-92
2022/06/10 00:49:58;;;;;;;25.05;20.02;;;;;;;20.80;54.09;93608.56;4983569;28;20041;-91
2022/06/10 00:52:33;;;;;;;25.55;21.00;;;;;;;20.77;54.04;93611.66;5015977;28;20045;-92
2022/06/10 00:54:59;;;;;;;24.52;19.73;;;;;;;20.77;53.83;93608.91;5024200;28;20377;-91
2022/06/10 00:57:31;;;;;;;24.55;19.45;;;;;;;20.77;54.02;93623.38;5021483;28;20085;-92
2022/06/10 01:00:07;;;;;;;23.58;19.23;;;;;;;20.78;54.06;93616.63;5030697;28;20063;-91
2022/06/10 01:02:35;;;;;;;23.67;18.10;;;;;;;20.78;53.99;93619.38;5006960;28;21112;-91
2022/06/10 01:05:06;;;;;;;23.20;18.95;;;;;;;20.76;53.99;93615.66;4996544;28;20045;-91
2022/06/10 01:07:32;;;;;;;;;;;;;;;20.82;53.94;93610.78;5000973;28;20505;-91
2022/06/10 01:09:59;;;;;;;24.52;18.27;;;;;;;20.79;54.03;93620.06;5040936;28;20413;-91
2022/06/10 01:13:03;;;;;;;22.55;17.65;;;;;;;20.76;53.89;93616.41;5008669;28;20467;-92
2022/06/10 01:15:53;;;;;;;22.48;18.15;;;;;;;20.77;54.06;93615.13;5022697;28;20388;-92
2022/06/10 01:18:50;;;;;;;24.02;17.83;;;;;;;20.77;53.91;93615.13;5040099;28;20048;-91
2022/06/10 01:21:30;;;;;;;21.83;17.88;;;;;;;20.75;54.09;93627.91;5008442;28;20040;-92
2022/06/10 01:24:07;;;;;;;22.65;17.20;;;;;;;20.75;54.13;93631.41;5019178;28;20139;-90
2022/06/10 01:29:55;;;;;;;23.02;18.02;;;;;;;20.75;54.05;93622.41;5032354;28;20044;-91
2022/06/10 01:32:34;;;;;;;19.17;15.65;;;;;;;20.75;53.80;93623.16;5025000;28;20044;-91
2022/06/10 01:35:24;;;;;;;20.50;16.88;;;;;;;20.75;53.89;93619.66;4999040;28;20117;-91
2022/06/10 01:37:58;;;;;;;21.17;15.68;;;;;;;20.75;53.92;93616.91;5019195;28;20149;-92
2022/06/10 01:40:44;;;;;;;18.00;15.43;;;;;;;20.76;53.92;93626.63;5004747;28;20037;-92
2022/06/10 01:43:37;;;;;;;18.75;15.70;;;;;;;20.75;53.76;93628.66;5026854;28;20052;-91
2022/06/10 01:46:25;;;;;;;20.83;16.13;;;;;;;20.74;53.98;93638.16;5023452;28;20041;-92
2022/06/10 01:48:59;;;;;;;18.60;15.63;;;;;;;20.75;53.74;93633.41;5013720;28;20054;-91
2022/06/10 01:51:29;;;;;;;18.80;15.15;;;;;;;20.74;54.06;93640.16;5027309;28;20051;-92
2022/06/10 01:53:58;;;;;;;19.27;14.75;;;;;;;20.75;53.80;93636.88;5026160;28;20056;-91
2022/06/10 01:56:26;;;;;;;19.23;14.65;;;;;;;20.73;53.70;93636.66;5033216;28;20040;-92
2022/06/10 01:59:00;;;;;;;18.63;14.13;;;;;;;20.73;53.79;93639.41;5026859;28;20033;-91
2022/06/10 02:01:29;;;;;;;16.48;14.25;;;;;;;20.74;53.88;93640.91;5029024;28;20257;-92
2022/06/10 02:04:10;;;;;;;18.38;14.25;;;;;;;20.72;53.70;93637.94;5003115;28;20041;-92
2022/06/10 02:06:43;;;;;;;17.23;14.02;;;;;;;20.72;53.78;93646.16;5027092;28;20057;-91
2022/06/10 02:09:11;;;;;;;16.50;14.02;;;;;;;20.71;53.76;93641.94;5013945;28;20040;-92
2022/06/10 02:11:38;;;;;;;16.42;13.77;;;;;;;20.72;53.90;93637.19;5018047;28;20048;-92
2022/06/10 02:14:09;;;;;;;19.58;13.40;;;;;;;20.74;53.60;93643.66;5022248;28;20395;-92
2022/06/10 02:16:38;;;;;;;17.17;13.80;;;;;;;20.72;53.83;93646.16;5004228;28;20041;-91
2022/06/10 02:19:06;;;;;;;16.63;13.73;;;;;;;20.71;53.83;93647.44;4994271;28;21163;-91
2022/06/10 02:21:40;;;;;;;16.58;13.93;;;;;;;20.73;53.90;93650.41;5004092;28;20045;-91
2022/06/10 02:24:17;;;;;;;14.73;13.13;;;;;;;20.71;53.84;93646.69;5009499;28;20041;-91
2022/06/10 02:26:42;;;;;;;15.02;12.98;;;;;;;20.72;53.65;93657.16;5014192;28;20201;-91
2022/06/10 02:29:11;;;;;;;14.45;11.80;;;;;;;20.72;53.52;93662.66;5009495;28;20038;-91
2022/06/10 02:31:40;;;;;;;12.95;11.60;;;;;;;20.72;53.88;93657.16;5018522;28;20025;-91
2022/06/10 02:34:06;;;;;;;14.88;12.63;;;;;;;20.72;53.77;93665.41;5013440;28;20408;-92
2022/06/10 02:36:59;;;;;;;16.35;12.77;;;;;;;20.73;53.68;93666.13;4988522;28;20033;-91
2022/06/10 02:39:35;;;;;;;14.98;12.40;;;;;;;20.71;53.69;93665.91;5020191;28;20372;-92
2022/06/10 02:42:19;;;;;;;15.18;11.43;;;;;;;20.71;53.84;93669.41;5016197;28;20129;-92
2022/06/10 02:45:09;;;;;;;17.05;12.45;;;;;;;20.72;53.75;93672.91;5011358;28;20091;-91
2022/06/10 02:47:40;;;;;;;15.30;12.63;;;;;;;20.72;53.82;93686.63;5020635;28;20563;-92
2022/06/10 02:50:07;;;;;;;14.90;11.43;;;;;;;20.70;53.70;93678.91;5000835;28;20049;-92
2022/06/10 02:52:34;;;;;;;14.15;11.55;;;;;;;20.71;53.67;93685.88;4990223;28;20051;-91
2022/06/10 02:54:59;;;;;;;15.30;11.52;;;;;;;20.70;53.81;93684.41;5013315;28;20427;-91
2022/06/10 03:01:11;;;;;;;14.40;11.02;;;;;;;20.71;53.75;93685.88;5007712;28;20052;-91
2022/06/10 03:03:18;;;;;;;15.30;11.32;;;;;;;20.71;53.59;93685.16;5015022;28;20132;-91
2022/06/10 03:05:53;;;;;;;13.68;10.00;;;;;;;20.69;53.73;93690.41;5011584;28;20503;-91
2022/06/10 03:08:31;;;;;;;13.35;10.73;;;;;;;20.67;53.84;93687.44;5002157;28;20077;-91
2022/06/10 03:11:10;;;;;;;13.70;10.68;;;;;;;20.69;53.47;93690.41;5011430;28;20065;-92
2022/06/10 03:13:46;;;;;;;13.00;10.77;;;;;;;20.69;53.66;93690.41;5017490;28;20439;-92
2022/06/10 03:16:28;;;;;;;12.93;10.48;;;;;;;20.70;53.69;93698.13;5017997;28;20076;-90
2022/06/10 03:19:03;;;;;;;13.40;10.00;;;;;;;20.70;53.39;93706.38;5041780;28;20045;-92
2022/06/10 03:21:39;;;;;;;14.02;10.32;;;;;;;20.68;53.71;93706.16;5043027;28;20045;-92
2022/06/10 03:24:22;;;;;;;12.95;9.90;;;;;;;20.71;53.57;93718.13;5025581;28;20076;-92
2022/06/10 03:26:55;;;;;;;12.73;9.63;;;;;;;20.70;53.67;93717.38;5028510;28;20090;-91
2022/06/10 03:29:37;;;;;;;12.32;10.50;;;;;;;20.68;53.74;93713.66;5039827;28;20542;-91
2022/06/10 03:32:08;;;;;;;12.13;9.98;;;;;;;20.68;53.53;93719.88;5009760;28;20069;-91
2022/06/10 03:34:37;;;;;;;13.45;9.95;;;;;;;20.69;53.76;93717.88;5003147;28;20037;-91
2022/06/10 03:37:04;;;;;;;11.52;9.60;;;;;;;20.69;53.45;93718.63;5001649;28;20036;-91
2022/06/10 03:39:29;;;;;;;10.30;8.35;;;;;;;20.68;53.59;93728.13;5022376;28;20155;-91
2022/06/10 03:42:16;;;;;;;11.73;9.18;;;;;;;20.68;53.61;93721.91;5011683;28;20037;-91
2022/06/10 03:44:42;;;;;;;11.00;8.65;;;;;;;20.67;53.58;93731.41;5034683;28;20037;-91
2022/06/10 03:47:08;;;;;;;10.70;8.48;;;;;;;20.65;53.69;93731.16;5018730;28;20037;-91
2022/06/10 03:49:42;;;;;;;11.02;9.00;;;;;;;20.67;53.67;93745.88;4997516;28;20044;-92
2022/06/10 03:52:07;;;;;;;11.25;8.48;;;;;;;20.69;53.60;93737.13;5015894;28;20052;-91
2022/06/10 03:54:33;;;;;;;11.32;9.50;;;;;;;20.67;53.49;93745.88;5017901;28;20487;-91
2022/06/10 03:56:58;;;;;;;9.95;8.55;;;;;;;20.68;53.55;93752.09;5026798;28;20044;-91
2022/06/10 03:59:24;;;;;;;10.88;8.38;;;;;;;20.67;53.40;93751.38;5016759;28;20036;-91
2022/06/10 04:01:49;;;;;;;11.13;8.45;;;;;;;20.67;53.58;93754.13;5023591;28;20030;-92
2022/06/10 04:04:15;;;;;;;9.07;8.18;;;;;;;20.66;53.61;93758.13;5001091;28;20521;-92
2022/06/10 04:06:40;;;;;;;9.20;7.85;;;;;;;20.67;53.42;93754.13;4979246;28;20504;-91
2022/06/10 04:09:07;;;;;;;10.32;8.13;;;;;;;20.66;53.62;93755.38;5004589;28;20059;-92
2022/06/10 04:11:33;;;;;;;10.13;8.45;;;;;;;20.67;53.59;93758.88;5020301;28;20053;-91
2022/06/10 04:13:58;;;;;;;8.95;7.60;;;;;;;20.66;53.37;93760.88;5015569;28;20037;-90
2022/06/10 04:16:26;;;;;;;10.43;8.60;;;;;;;20.71;53.67;93765.56;5015773;28;20358;-91
2022/06/10 04:18:52;;;;;;;10.63;7.65;;;;;;;20.71;53.27;93768.31;4976868;28;20049;-92
2022/06/10 04:21:17;;;;;;;10.63;8.35;;;;;;;20.68;53.39;93771.34;4958499;28;20315;-91
2022/06/10 04:23:42;;;;;;;9.95;7.85;;;;;;;20.69;53.93;93772.81;4997114;28;20374;-91
2022/06/10 04:26:08;;;;;;;11.95;7.45;;;;;;;20.68;53.63;93782.31;4989424;28;20395;-92
2022/06/10 04:28:34;;;;;;;16.30;7.38;;;;;;;20.69;53.42;93776.31;4994112;28;20571;-92
2022/06/10 04:31:00;;;;;;;36.15;8.07;;;;;;;20.68;53.46;93779.59;4992549;28;20037;-91
2022/06/10 04:33:25;;;;;;;16.45;9.27;;;;;;;20.74;53.57;93785.75;4982595;28;20508;-91
2022/06/10 04:35:51;;;;;;;72.03;56.60;;;;;;;20.74;53.42;93781.00;4964635;28;20076;-90
2022/06/10 04:38:19;;;;;;;51.03;36.15;;;;;;;20.75;53.41;93787.25;4992487;28;20044;-91
2022/06/10 04:40:44;;;;;;;23.88;16.20;;;;;;;20.72;53.21;93788.28;5009008;28;20033;-90
2022/06/10 04:43:10;;;;;;;255.38;195.35;;;;;;;20.82;53.00;93786.66;5007665;28;20037;-90
2022/06/10 04:45:40;;;;;;;73.82;56.85;;;;;;;20.83;53.12;93788.13;4966793;28;20196;-89
2022/06/10 04:48:07;;;;;;;29.55;18.08;;;;;;;20.82;53.23;93786.66;4975577;28;20172;-91
2022/06/10 04:50:32;;;;;;;21.30;15.18;;;;;;;20.85;52.80;93785.63;5005914;28;20045;-91
2022/06/10 04:52:58;;;;;;;16.60;12.52;;;;;;;20.80;53.13;93791.91;4970658;28;20033;-90
2022/06/10 04:55:25;;;;;;;29.77;13.05;;;;;;;20.78;52.93;93794.47;5004704;28;20135;-90
2022/06/10 04:57:50;;;;;;;27.75;9.77;;;;;;;20.69;52.42;93790.06;4986380;28;20072;-90
2022/06/10 05:00:22;;;;;;;14.98;7.22;;;;;;;20.62;52.46;93803.63;4976625;28;20045;-89
2022/06/10 05:02:47;;;;;;;25.20;7.68;;;;;;;20.54;52.03;93811.69;4956198;28;20037;-91
2022/06/10 05:05:13;;;;;;;28.85;7.95;;;;;;;20.49;52.30;93810.50;4945372;28;20049;-89
2022/06/10 05:07:38;;;;;;;29.35;10.82;;;;;;;20.46;51.96;93813.53;4975200;28;20049;-92
2022/06/10 05:10:05;;;;;;;85.15;22.95;;;;;;;20.38;52.18;93813.34;4979828;28;20045;-91
2022/06/10 05:12:30;;;;;;;70.97;22.63;;;;;;;20.38;52.03;93815.34;4980882;28;20053;-90
2022/06/10 05:14:56;;;;;;;67.78;22.73;;;;;;;20.45;51.82;93820.28;4973956;28;20052;-92
2022/06/10 05:17:22;;;;;;;112.93;27.45;;;;;;;20.36;51.81;93815.06;4993581;28;20046;-91
2022/06/10 05:19:48;;;;;;;115.82;25.25;;;;;;;20.30;51.97;93830.88;4990604;28;20198;-92
2022/06/10 05:22:14;;;;;;;90.38;22.92;;;;;;;20.27;51.86;93826.41;4982784;28;20041;-90
2022/06/10 05:24:40;;;;;;;108.90;25.55;;;;;;;20.24;51.88;93825.44;4976674;28;20127;-90
2022/06/10 05:27:05;;;;;;;82.18;18.95;;;;;;;20.23;51.80;93834.91;4993339;28;20461;-92
2022/06/10 05:29:32;;;;;;;78.32;17.15;;;;;;;20.30;51.97;93834.38;4999307;28;20063;-90
2022/06/10 05:31:58;;;;;;;47.20;13.73;;;;;;;20.15;52.08;93840.22;4995468;28;20029;-90
2022/06/10 05:37:18;;;;;;;43.88;17.27;;;;;;;20.21;51.99;93851.16;5005447;28;20044;-90
2022/06/10 05:39:45;;;;;;;124.18;31.60;;;;;;;20.11;52.04;93856.25;5056620;28;20412;-90
2022/06/10 05:42:11;;;;;;;52.92;17.77;;;;;;;20.09;52.03;93847.78;5010099;28;20124;-89
2022/06/10 05:44:46;;;;;;;72.15;19.83;;;;;;;20.17;52.03;93842.44;4999709;28;20131;-90
2022/06/10 05:47:13;;;;;;;135.88;34.35;;;;;;;20.17;51.86;93839.72;5017356;28;20045;-90
2022/06/10 05:49:40;;;;;;;71.70;23.63;;;;;;;20.07;52.25;93842.03;5014745;28;20116;-91
2022/06/10 05:52:06;;;;;;;80.20;24.23;;;;;;;20.14;51.95;93844.22;5009005;28;21625;-89
2022/06/10 05:54:33;;;;;;;85.35;22.83;;;;;;;20.07;51.82;93850.28;4999836;28;20049;-89
2022/06/10 05:56:58;;;;;;;50.75;14.45;;;;;;;20.02;51.91;93853.81;4999522;28;20048;-90
2022/06/10 05:59:29;;;;;;;69.05;18.05;;;;;;;20.09;51.85;93855.25;4999153;28;20091;-90
2022/06/10 06:01:56;;;;;;;35.17;13.00;;;;;;;20.13;51.93;93861.22;5012391;28;20068;-90
2022/06/10 06:04:23;;;;;;;44.47;17.92;;;;;;;19.99;52.30;93854.06;5016945;28;24940;-89
2022/06/10 06:06:49;;;;;;;51.45;25.85;;;;;;;20.03;52.04;93866.28;4973621;28;20131;-87
2022/06/10 06:09:15;;;;;;;31.38;16.83;;;;;;;20.01;52.10;93868.78;5002079;28;20110;-88
2022/06/10 06:11:41;;;;;;;22.42;12.05;;;;;;;19.99;51.77;93871.28;4995467;28;20142;-87
2022/06/10 06:14:06;;;;;;;18.58;11.15;;;;;;;19.99;52.03;93867.81;4967115;28;20829;-89
2022/06/10 06:16:32;;;;;;;46.78;13.23;;;;;;;19.97;51.98;93878.53;5006751;28;20044;-89
2022/06/10 06:18:57;;;;;;;21.98;10.30;;;;;;;19.97;52.40;93875.78;4996121;28;20412;-89
2022/06/10 06:21:23;;;;;;;17.55;9.27;;;;;;;19.93;52.45;93884.28;4972800;28;20769;-87
2022/06/10 06:23:48;;;;;;;11.45;8.52;;;;;;;19.98;52.31;93888.25;5002898;28;20084;-90
2022/06/10 06:26:17;;;;;;;11.20;8.77;;;;;;;19.99;52.02;93887.00;5006923;28;20070;-90
2022/06/10 06:28:43;;;;;;;12.70;7.88;;;;;;;19.92;52.64;93888.28;4981314;28;20037;-91
2022/06/10 06:31:09;;;;;;;13.25;8.82;;;;;;;19.91;52.35;93877.84;4990453;28;20033;-89
2022/06/10 06:33:35;;;;;;;16.17;10.63;;;;;;;19.86;52.51;93884.84;5011046;28;20063;-91
2022/06/10 06:36:00;;;;;;;19.85;9.93;;;;;;;19.89;52.43;93889.34;4981994;28;20048;-87
2022/06/10 06:38:26;;;;;;;15.77;8.05;;;;;;;19.91;52.56;93888.81;4980639;28;20041;-88
2022/06/10 06:40:52;;;;;;;27.42;11.98;;;;;;;19.94;52.48;93893.28;5011171;28;20037;-88
2022/06/10 06:43:18;;;;;;;29.73;15.07;;;;;;;19.94;52.45;93890.53;4978477;28;20056;-89
2022/06/10 06:45:44;;;;;;;26.17;16.00;;;;;;;19.84;52.74;93896.34;4998667;28;20075;-87
2022/06/10 06:48:10;;;;;;;25.98;15.30;;;;;;;19.84;52.98;93901.81;5006923;28;21468;-87
2022/06/10 06:50:39;;;;;;;83.13;21.90;;;;;;;19.88;52.83;93898.06;4992369;28;20068;-89
2022/06/10 06:53:05;;;;;;;63.95;18.58;;;;;;;19.85;52.90;93910.81;4988568;28;20088;-87
2022/06/10 06:55:30;;;;;;;95.65;23.67;;;;;;;19.91;52.69;93910.78;5007017;28;20119;-88
2022/06/10 06:57:56;;;;;;;99.68;23.83;;;;;;;19.92;52.79;93907.50;4960639;28;20057;-89
2022/06/10 07:00:22;;;;;;;58.72;16.58;;;;;;;19.87;53.03;93911.03;4958879;28;20056;-88
2022/06/10 07:02:47;;;;;;;109.10;28.55;;;;;;;19.99;52.80;93914.44;4957793;28;20731;-89
2022/06/10 07:05:13;;;;;;;55.65;20.65;;;;;;;19.92;53.06;93904.03;4975581;28;20065;-89
2022/06/10 07:07:39;;;;;;;146.63;38.60;;;;;;;19.93;53.10;93922.72;4962499;28;20048;-89
2022/06/10 07:10:06;;;;;;;175.88;37.08;;;;;;;19.91;53.09;93924.50;4990531;28;20037;-88
2022/06/10 07:12:33;;;;;;;98.53;29.05;;;;;;;19.97;53.07;93914.97;4994401;28;20052;-88
2022/06/10 07:14:58;;;;;;;91.85;25.98;;;;;;;19.93;53.16;93919.22;4987228;28;20041;-90
2022/06/10 07:17:23;;;;;;;155.40;35.78;;;;;;;19.89;53.50;93921.50;5001064;28;20044;-89
2022/06/10 07:19:51;;;;;;;177.65;37.20;;;;;;;19.87;53.63;93919.28;4996538;28;20059;-88
2022/06/10 07:22:16;;;;;;;202.73;38.40;;;;;;;19.87;53.89;93924.75;4975888;28;20095;-91
2022/06/10 07:24:42;;;;;;;177.70;40.38;;;;;;;19.88;53.93;93909.78;5015771;28;20727;-88
2022/06/10 07:27:08;;;;;;;223.90;43.88;;;;;;;19.94;53.95;93924.19;4997639;28;20147;-88
2022/06/10 07:29:34;;;;;;;135.73;26.83;;;;;;;19.92;54.02;93920.50;4996023;28;20048;-89
2022/06/10 07:32:01;;;;;;;115.90;25.38;;;;;;;19.99;53.80;93917.94;5011053;28;20037;-91
2022/06/10 07:34:27;;;;;;;88.30;19.17;;;;;;;19.98;53.81;93915.69;5013024;28;20109;-90
2022/06/10 07:36:52;;;;;;;65.93;18.15;;;;;;;19.98;54.11;93926.69;4980900;28;20145;-90
2022/06/10 07:39:17;;;;;;;123.82;32.55;;;;;;;20.04;54.04;93922.66;4986014;28;20112;-91
2022/06/10 07:42:00;;;;;;;145.05;33.20;;;;;;;20.00;53.96;93924.19;5008265;28;20032;-93
2022/06/10 07:44:31;;;;;;;116.45;29.88;;;;;;;19.94;54.45;93929.69;5004187;28;20510;-90
2022/06/10 07:46:58;;;;;;;97.97;23.65;;;;;;;19.96;54.42;93935.41;5038312;28;20047;-91
2022/06/10 07:49:24;;;;;;;62.00;17.50;;;;;;;19.99;54.43;93925.44;5025740;28;20098;-91
2022/06/10 07:51:49;;;;;;;68.63;30.70;;;;;;;20.07;54.37;93929.88;4980555;28;20049;-88
2022/06/10 07:54:14;;;;;;;29.23;13.43;;;;;;;20.14;54.50;93945.03;5019671;28;20029;-91
2022/06/10 07:56:40;;;;;;;44.08;14.18;;;;;;;20.05;54.58;93937.88;5017968;28;20125;-91
2022/06/10 07:59:06;;;;;;;35.60;13.65;;;;;;;20.04;54.88;93944.59;4980116;28;20049;-91
2022/06/10 08:01:32;;;;;;;47.08;17.70;;;;;;;20.10;54.96;93952.81;5010796;28;20041;-92
2022/06/10 08:03:57;;;;;;;62.97;21.58;;;;;;;20.03;54.99;93953.34;5006017;28;20039;-91
2022/06/10 08:06:23;;;;;;;41.83;16.75;;;;;;;20.05;54.90;93940.63;5020227;28;20072;-91
2022/06/10 08:08:49;;;;;;;45.60;20.48;;;;;;;20.04;54.95;93939.13;4999154;28;20029;-91
2022/06/10 08:11:15;;;;;;;48.72;22.35;;;;;;;20.04;55.10;93936.38;5016217;28;20044;-91
2022/06/10 08:13:40;;;;;;;48.85;26.40;;;;;;;20.07;55.04;93942.84;5003801;28;20051;-90
2022/06/10 08:16:06;;;;;;;68.53;38.15;;;;;;;20.04;54.88;93952.84;5011407;28;20045;-89
2022/06/10 08:18:33;;;;;;;56.78;30.85;;;;;;;20.07;54.79;93948.34;5011613;28;20029;-90
2022/06/10 08:23:43;;;;;;;66.10;33.60;;;;;;;19.97;55.36;93953.38;4986389;28;20060;-91
2022/06/10 08:26:08;;;;;;;114.57;42.88;;;;;;;19.99;55.09;93950.88;4999622;28;20049;-91
2022/06/10 08:28:36;;;;;;;58.70;31.42;;;;;;;20.08;55.02;93955.31;4955319;28;20049;-90
2022/06/10 08:31:02;;;;;;;89.10;35.85;;;;;;;20.06;55.08;93958.56;4967621;28;20709;-90
2022/06/10 08:33:28;;;;;;;65.35;35.58;;;;;;;20.06;55.17;93953.09;5008943;28;20049;-92
2022/06/10 08:35:58;;;;;;;49.63;25.85;;;;;;;20.09;54.90;93949.31;5001011;28;20069;-92
2022/06/10 08:38:23;;;;;;;45.95;25.58;;;;;;;20.03;54.74;93954.09;5003365;28;20089;-92
2022/06/10 08:41:00;;;;;;;53.97;28.00;;;;;;;20.07;54.75;93962.06;4999900;28;20049;-91
2022/06/10 08:43:54;;;;;;;75.47;29.80;;;;;;;20.06;54.79;93955.81;4989747;28;20045;-93
2022/06/10 08:46:34;;;;;;;123.13;43.17;;;;;;;20.07;54.73;93965.56;5017207;28;20179;-91
2022/06/10 08:49:20;;;;;;;85.78;37.63;;;;;;;20.11;54.95;93965.28;4993876;28;20062;-92
2022/06/10 08:51:51;;;;;;;184.25;63.33;;;;;;;20.08;54.97;93966.31;4948468;28;20046;-89
2022/06/10 08:54:24;;;;;;;84.43;41.05;;;;;;;20.08;54.73;93974.53;4987380;28;20098;-92
2022/06/10 08:56:50;;;;;;;54.92;29.33;;;;;;;20.09;54.83;93965.03;5010063;28;20065;-90
2022/06/10 08:59:28;;;;;;;50.92;30.08;;;;;;;20.13;54.84;93977.25;4956360;28;20053;-91
2022/06/10 09:02:08;;;;;;;98.22;32.83;;;;;;;20.13;55.00;93974.50;5003448;28;20045;-90
2022/06/10 09:04:43;;;;;;;54.47;27.45;;;;;;;20.11;55.01;93971.53;5007169;28;20058;-90
2022/06/10 09:07:18;;;;;;;61.55;27.85;;;;;;;20.08;54.91;93969.78;5002029;28;20489;-90
2022/06/10 09:09:44;;;;;;;55.95;28.55;;;;;;;20.12;54.79;93981.25;4954589;28;20107;-94
2022/06/10 09:12:18;;;;;;;58.20;23.92;;;;;;;20.11;55.01;93979.00;4966745;28;20045;-92
2022/06/10 09:14:45;;;;;;;63.35;25.15;;;;;;;20.15;55.02;93985.69;5029217;28;20044;-91
2022/06/10 09:17:19;;;;;;;78.35;29.20;;;;;;;20.14;54.99;93986.94;4995690;28;20069;-91
2022/06/10 09:19:58;;;;;;;85.82;36.85;;;;;;;20.18;54.94;93983.94;5010690;28;20061;-92
2022/06/10 09:22:40;;;;;;;50.50;27.07;;;;;;;20.17;54.94;93987.94;4986880;28;20045;-92
2022/06/10 09:25:34;;;;;;;51.08;26.23;;;;;;;20.15;55.35;93990.44;5010863;28;20049;-92
2022/06/10 09:28:00;;;;;;;65.28;25.67;;;;;;;20.14;55.40;93997.19;5005536;28;20045;-89
2022/06/10 09:30:34;;;;;;;55.78;23.17;;;;;;;20.14;55.56;93994.44;5000473;28;20566;-92
2022/06/10 09:33:05;;;;;;;73.05;35.13;;;;;;;20.11;55.86;93993.47;5016887;28;20446;-92
2022/06/10 09:35:35;;;;;;;57.80;31.52;;;;;;;20.11;55.69;93996.22;5005776;28;20053;-92
2022/06/10 09:38:18;;;;;;;66.53;36.33;;;;;;;20.16;55.87;94000.16;4994455;28;20103;-92
2022/06/10 09:41:06;;;;;;;59.60;27.95;;;;;;;20.13;56.21;94007.44;5020631;28;20042;-91
2022/06/10 09:43:42;;;;;;;32.85;17.38;;;;;;;20.16;56.28;94005.66;4996423;28;20600;-90
2022/06/10 09:46:39;;;;;;;61.15;29.15;;;;;;;20.07;56.48;93998.50;4968901;28;20068;-88
2022/06/10 09:49:16;;;;;;;59.13;26.95;;;;;;;20.05;56.54;94008.47;4958906;28;20130;-90
2022/06/10 09:52:08;;;;;;;53.67;27.83;;;;;;;20.03;56.90;94008.25;5017839;28;20063;-89
2022/06/10 09:54:44;;;;;;;40.42;23.20;;;;;;;20.10;57.33;94000.22;5009512;28;20041;-91
2022/06/10 09:57:45;;;;;;;48.92;24.45;;;;;;;20.09;57.05;93993.25;4976098;28;20107;-88
2022/06/10 10:00:17;;;;;;;841.47;106.15;;;;;;;20.04;57.46;93998.75;4991144;28;20381;-90
2022/06/10 10:03:07;;;;;;;121.55;24.75;;;;;;;20.04;57.52;94004.25;5018385;28;20045;-90
2022/06/10 10:05:50;;;;;;;85.43;19.30;;;;;;;20.04;57.79;94007.72;5021781;28;20136;-89
2022/06/10 10:08:27;;;;;;;96.97;19.60;;;;;;;20.14;57.67;94002.69;4969005;28;20045;-87
2022/06/10 10:10:59;;;;;;;50.50;19.50;;;;;;;20.18;56.74;94009.41;5020906;28;20052;-87
2022/06/10 10:13:46;;;;;;;67.32;23.77;;;;;;;20.24;56.87;94003.88;4992107;28;20044;-87
2022/06/10 10:16:24;;;;;;;69.68;28.25;;;;;;;20.26;56.51;94006.13;5033293;28;20037;-90
2022/06/10 10:18:58;;;;;;;87.05;32.85;;;;;;;20.31;56.12;94008.84;5021278;28;20051;-89
2022/06/10 10:21:55;;;;;;;73.32;28.15;;;;;;;20.35;56.13;94005.81;5055718;28;20105;-87
2022/06/10 10:24:25;;;;;;;95.63;33.50;;;;;;;20.38;55.64;94005.56;5027906;28;20053;-90
2022/06/10 10:26:51;;;;;;;74.28;25.60;;;;;;;20.42;55.80;94010.78;4968446;28;20635;-87
2022/06/10 10:29:30;;;;;;;80.20;30.35;;;;;;;20.41;55.92;94007.28;4997616;23;20486;-91
2022/06/10 10:32:07;;;;;;;72.68;27.85;;;;;;;20.42;56.00;94006.03;5025165;28;20064;-86
2022/06/10 10:34:37;;;;;;;90.55;31.38;;;;;;;20.44;55.42;94000.03;5004507;28;20048;-86
2022/06/10 10:37:22;;;;;;;72.25;27.70;;;;;;;20.46;55.48;94011.25;4999506;28;20081;-86
2022/06/10 10:39:55;;;;;;;48.53;24.83;;;;;;;20.45;55.43;94015.25;5007927;22;20059;-87
2022/06/10 10:42:24;;;;;;;36.63;20.08;;;;;;;20.44;55.54;94020.00;5028905;28;20041;-88
2022/06/10 10:45:01;;;;;;;56.42;26.98;;;;;;;20.49;55.09;94010.25;5017601;28;20040;-89
2022/06/10 10:47:37;;;;;;;74.90;42.90;;;;;;;20.49;55.16;94013.72;5058018;28;20032;-87
2022/06/10 10:50:04;;;;;;;154.90;78.30;;;;;;;20.56;55.66;94014.44;5033283;28;20037;-89
2022/06/10 10:52:32;;;;;;;72.20;38.90;;;;;;;20.52;55.13;94012.72;5012798;28;20053;-88
2022/06/10 10:55:14;;;;;;;78.10;45.05;;;;;;;20.55;55.22;94019.19;5021972;28;20060;-87
2022/06/10 11:07:21;;;;;;;47.50;31.60;;;;;;;20.52;55.19;94037.44;5042165;28;20024;-88
2022/06/10 11:13:14;;;;;;;53.03;32.63;;;;;;;20.50;55.24;94025.47;5027923;28;20041;-89
2022/06/10 11:19:08;;;;;;;42.25;29.92;;;;;;;20.53;55.36;94027.94;5050970;28;20043;-92
2022/06/10 11:25:29;;;;;;;48.42;32.65;;;;;;;20.58;55.31;94023.63;5043268;28;20052;-89
2022/06/10 11:31:23;;;;;;;42.80;29.88;;;;;;;20.58;55.22;94028.38;5028998;28;20124;-89
2022/06/10 11:37:26;;;;;;;34.95;26.85;;;;;;;20.63;55.33;94020.13;5040361;28;20498;-88
2022/06/10 11:43:27;;;;;;;36.15;25.45;;;;;;;20.67;55.36;94012.34;5018767;28;20088;-88
2022/06/10 11:46:14;;;;;;;39.50;27.48;;;;;;;20.66;56.46;94010.84;5018837;28;20037;-89
2022/06/10 11:52:17;;;;;;;44.53;31.38;;;;;;;20.79;56.48;94013.00;5014584;28;20053;-88
2022/06/10 12:02:05;;;;;;;27.60;22.50;;;;;;;20.83;55.87;94008.72;4972161;28;20069;-87
2022/06/10 12:07:34;;;;;;;32.15;22.55;;;;;;;20.81;55.16;94011.22;4951950;28;20272;-88
2022/06/10 12:10:05;;;;;;;29.13;20.55;;;;;;;20.74;55.73;93989.81;4953607;28;20039;-89
2022/06/10 12:15:55;;;;;;;25.13;17.65;;;;;;;20.77;55.83;94001.78;4958504;28;20086;-88
2022/06/10 12:21:43;;;;;;;25.70;17.95;;;;;;;20.70;55.69;94000.34;4954125;28;20050;-90
2022/06/10 12:27:43;;;;;;;26.90;21.30;;;;;;;20.71;55.42;93992.84;4953711;28;20480;-94
2022/06/10 12:33:42;;;;;;;24.25;19.55;;;;;;;20.68;55.33;93999.34;4954228;28;20046;-92
2022/06/10 12:39:44;;;;;;;21.25;16.85;;;;;;;20.66;55.68;93991.63;5012754;28;20045;-93
2022/06/10 12:42:14;;;;;;;144.68;104.28;;;;;;;20.67;55.65;93989.63;4997329;28;20042;-93
2022/06/10 12:48:16;;;;;;;27.67;17.98;;;;;;;20.64;55.83;93996.13;5014897;28;20044;-92
2022/06/10 12:54:08;;;;;;;19.48;16.13;;;;;;;20.63;56.00;93994.66;5013804;28;20084;-94